sensor_id;sensor_type;location;lat;lon;timestamp;pressure;altitude;pressure_sealevel;temperature;humidity
72558;BME280;60583;50.094;8.748;2024-02-04T00:00:41;101307.38;;;9.76;98.21
72558;BME280;60583;50.094;8.748;2024-02-04T00:03:26;101305.50;;;9.85;98.60
72558;BME280;60583;50.094;8.748;2024-02-04T00:06:10;101305.34;;;9.86;98.70
72558;BME280;60583;50.094;8.748;2024-02-04T00:08:54;101300.38;;;9.75;98.98
72558;BME280;60583;50.094;8.748;2024-02-04T00:11:38;101289.75;;;9.67;99.25
72558;BME280;60583;50.094;8.748;2024-02-04T00:14:22;101283.44;;;9.68;99.92
72558;BME280;60583;50.094;8.748;2024-02-04T00:17:06;101310.84;;;9.85;99.79
72558;BME280;60583;50.094;8.748;2024-02-04T00:19:51;101308.84;;;9.87;99.47
72558;BME280;60583;50.094;8.748;2024-02-04T00:22:35;101247.19;;;9.51;100.00
72558;BME280;60583;50.094;8.748;2024-02-04T00:25:19;101300.38;;;9.83;100.00
72558;BME280;60583;50.094;8.748;2024-02-04T00:28:03;101299.06;;;9.79;100.00
72558;BME280;60583;50.094;8.748;2024-02-04T00:30:47;101283.25;;;9.70;100.00
72558;BME280;60583;50.094;8.748;2024-02-04T00:33:33;101283.41;;;9.76;100.00
72558;BME280;60583;50.094;8.748;2024-02-04T00:36:17;101298.75;;;9.74;100.00
72558;BME280;60583;50.094;8.748;2024-02-04T00:39:01;101277.78;;;9.63;100.00
72558;BME280;60583;50.094;8.748;2024-02-04T00:41:45;101293.75;;;9.71;100.00
72558;BME280;60583;50.094;8.748;2024-02-04T00:44:29;101260.81;;;9.64;100.00
72558;BME280;60583;50.094;8.748;2024-02-04T00:47:13;101283.72;;;9.81;100.00
72558;BME280;60583;50.094;8.748;2024-02-04T00:49:57;101284.06;;;9.78;100.00
72558;BME280;60583;50.094;8.748;2024-02-04T00:52:41;101273.78;;;9.67;100.00
72558;BME280;60583;50.094;8.748;2024-02-04T00:55:25;101295.38;;;9.72;100.00
72558;BME280;60583;50.094;8.748;2024-02-04T00:58:09;101290.75;;;9.74;100.00
72558;BME280;60583;50.094;8.748;2024-02-04T01:00:53;101289.56;;;9.77;100.00
72558;BME280;60583;50.094;8.748;2024-02-04T01:03:37;101288.25;;;9.73;100.00
72558;BME280;60583;50.094;8.748;2024-02-04T01:06:20;101286.59;;;9.72;100.00
72558;BME280;60583;50.094;8.748;2024-02-04T01:09:04;101271.47;;;9.64;100.00
72558;BME280;60583;50.094;8.748;2024-02-04T01:11:48;101294.72;;;9.78;100.00
72558;BME280;60583;50.094;8.748;2024-02-04T01:14:32;101272.78;;;9.68;100.00
72558;BME280;60583;50.094;8.748;2024-02-04T01:17:16;101282.91;;;9.81;100.00
72558;BME280;60583;50.094;8.748;2024-02-04T01:20:00;101268.75;;;9.72;100.00
72558;BME280;60583;50.094;8.748;2024-02-04T01:22:44;101274.47;;;9.69;100.00
72558;BME280;60583;50.094;8.748;2024-02-04T01:25:28;101243.19;;;9.47;100.00
72558;BME280;60583;50.094;8.748;2024-02-04T01:28:12;101264.81;;;9.60;100.00
72558;BME280;60583;50.094;8.748;2024-02-04T01:30:56;101265.47;;;9.62;100.00
72558;BME280;60583;50.094;8.748;2024-02-04T01:33:40;101267.13;;;9.71;100.00
72558;BME280;60583;50.094;8.748;2024-02-04T01:36:24;101286.59;;;9.72;100.00
72558;BME280;60583;50.094;8.748;2024-02-04T01:39:07;101292.72;;;9.80;100.00
72558;BME280;60583;50.094;8.748;2024-02-04T01:41:51;101290.75;;;9.66;100.00
72558;BME280;60583;50.094;8.748;2024-02-04T01:44:35;101294.59;;;9.72;100.00
72558;BME280;60583;50.094;8.748;2024-02-04T01:47:20;101299.53;;;9.75;100.00
72558;BME280;60583;50.094;8.748;2024-02-04T01:50:05;101272.13;;;9.58;100.00
72558;BME280;60583;50.094;8.748;2024-02-04T01:52:49;101274.63;;;9.59;100.00
72558;BME280;60583;50.094;8.748;2024-02-04T01:55:34;101298.91;;;9.64;100.00
72558;BME280;60583;50.094;8.748;2024-02-04T01:58:18;101278.97;;;9.52;100.00
72558;BME280;60583;50.094;8.748;2024-02-04T02:01:02;101313.03;;;9.73;100.00
72558;BME280;60583;50.094;8.748;2024-02-04T02:03:46;101272.84;;;9.44;100.00
72558;BME280;60583;50.094;8.748;2024-02-04T02:06:31;101301.09;;;9.61;100.00
72558;BME280;60583;50.094;8.748;2024-02-04T02:09:16;101296.09;;;9.66;100.00
72558;BME280;60583;50.094;8.748;2024-02-04T02:12:24;101306.22;;;9.71;100.00
72558;BME280;60583;50.094;8.748;2024-02-04T02:15:17;101285.47;;;9.50;100.00
72558;BME280;60583;50.094;8.748;2024-02-04T02:18:11;101288.44;;;9.55;100.00
72558;BME280;60583;50.094;8.748;2024-02-04T02:21:12;101280.00;;;9.43;100.00
72558;BME280;60583;50.094;8.748;2024-02-04T02:24:11;101229.78;;;9.24;100.00
72558;BME280;60583;50.094;8.748;2024-02-04T02:26:57;101254.88;;;9.30;100.00
72558;BME280;60583;50.094;8.748;2024-02-04T02:29:42;101305.59;;;9.52;100.00
72558;BME280;60583;50.094;8.748;2024-02-04T02:32:26;101277.81;;;9.47;100.00
72558;BME280;60583;50.094;8.748;2024-02-04T02:35:14;101260.53;;;9.35;100.00
72558;BME280;60583;50.094;8.748;2024-02-04T02:38:20;101251.56;;;9.20;100.00
72558;BME280;60583;50.094;8.748;2024-02-04T02:41:08;101270.19;;;9.36;100.00
72558;BME280;60583;50.094;8.748;2024-02-04T02:43:54;101267.88;;;9.33;100.00
72558;BME280;60583;50.094;8.748;2024-02-04T02:46:38;101246.94;;;9.14;100.00
72558;BME280;60583;50.094;8.748;2024-02-04T02:49:24;101253.72;;;9.32;100.00
72558;BME280;60583;50.094;8.748;2024-02-04T02:52:08;101257.72;;;9.28;100.00
72558;BME280;60583;50.094;8.748;2024-02-04T02:54:52;101222.50;;;9.02;100.00
72558;BME280;60583;50.094;8.748;2024-02-04T02:57:36;101255.06;;;9.20;100.00
72558;BME280;60583;50.094;8.748;2024-02-04T03:00:20;101251.44;;;9.21;100.00
72558;BME280;60583;50.094;8.748;2024-02-04T03:03:04;101220.00;;;9.01;100.00
72558;BME280;60583;50.094;8.748;2024-02-04T03:05:48;101248.59;;;9.15;100.00
72558;BME280;60583;50.094;8.748;2024-02-04T03:08:32;101223.00;;;9.06;100.00
72558;BME280;60583;50.094;8.748;2024-02-04T03:11:16;101229.63;;;9.10;100.00
72558;BME280;60583;50.094;8.748;2024-02-04T03:14:00;101202.38;;;8.91;100.00
72558;BME280;60583;50.094;8.748;2024-02-04T03:16:44;101230.31;;;9.04;100.00
72558;BME280;60583;50.094;8.748;2024-02-04T03:19:29;101231.50;;;9.01;100.00
72558;BME280;60583;50.094;8.748;2024-02-04T03:22:13;101228.16;;;8.99;100.00
72558;BME280;60583;50.094;8.748;2024-02-04T03:24:57;101238.31;;;9.04;100.00
72558;BME280;60583;50.094;8.748;2024-02-04T03:27:40;101219.34;;;8.98;100.00
72558;BME280;60583;50.094;8.748;2024-02-04T03:30:24;101232.81;;;9.05;100.00
72558;BME280;60583;50.094;8.748;2024-02-04T03:33:08;101241.63;;;9.06;100.00
72558;BME280;60583;50.094;8.748;2024-02-04T03:35:52;101226.66;;;8.96;100.00
72558;BME280;60583;50.094;8.748;2024-02-04T03:38:36;101244.75;;;9.09;100.00
72558;BME280;60583;50.094;8.748;2024-02-04T03:41:20;101230.31;;;9.04;100.00
72558;BME280;60583;50.094;8.748;2024-02-04T03:44:04;101204.72;;;8.94;100.00
72558;BME280;60583;50.094;8.748;2024-02-04T03:46:49;101208.38;;;8.93;100.00
72558;BME280;60583;50.094;8.748;2024-02-04T03:49:33;101216.53;;;8.92;100.00
72558;BME280;60583;50.094;8.748;2024-02-04T03:52:17;101216.69;;;8.98;100.00
72558;BME280;60583;50.094;8.748;2024-02-04T03:55:01;101215.53;;;9.01;100.00
72558;BME280;60583;50.094;8.748;2024-02-04T03:57:45;101203.56;;;8.97;100.00
72558;BME280;60583;50.094;8.748;2024-02-04T04:00:30;101199.72;;;8.91;100.00
72558;BME280;60583;50.094;8.748;2024-02-04T04:03:14;101219.00;;;9.02;100.00
72558;BME280;60583;50.094;8.748;2024-02-04T04:05:58;101212.88;;;8.93;100.00
72558;BME280;60583;50.094;8.748;2024-02-04T04:08:42;101182.31;;;8.81;100.00
72558;BME280;60583;50.094;8.748;2024-02-04T04:11:26;101219.50;;;8.97;100.00
72558;BME280;60583;50.094;8.748;2024-02-04T04:14:10;101217.03;;;8.87;100.00
72558;BME280;60583;50.094;8.748;2024-02-04T04:16:54;101195.94;;;8.86;100.00
72558;BME280;60583;50.094;8.748;2024-02-04T04:19:39;101168.69;;;8.68;100.00
72558;BME280;60583;50.094;8.748;2024-02-04T04:22:23;101225.34;;;9.01;100.00
72558;BME280;60583;50.094;8.748;2024-02-04T04:25:08;101216.00;;;9.05;100.00
72558;BME280;60583;50.094;8.748;2024-02-04T04:27:51;101218.00;;;9.03;100.00
72558;BME280;60583;50.094;8.748;2024-02-04T04:30:35;101203.88;;;8.94;100.00
72558;BME280;60583;50.094;8.748;2024-02-04T04:33:19;101207.38;;;8.86;100.00
72558;BME280;60583;50.094;8.748;2024-02-04T04:36:04;101210.03;;;8.94;100.00
72558;BME280;60583;50.094;8.748;2024-02-04T04:38:48;101221.31;;;9.05;100.00
72558;BME280;60583;50.094;8.748;2024-02-04T04:41:34;101173.50;;;8.72;100.00
72558;BME280;60583;50.094;8.748;2024-02-04T04:44:17;101223.19;;;8.96;100.00
72558;BME280;60583;50.094;8.748;2024-02-04T04:47:01;101189.59;;;8.95;100.00
72558;BME280;60583;50.094;8.748;2024-02-04T04:49:45;101201.38;;;9.09;100.00
72558;BME280;60583;50.094;8.748;2024-02-04T04:52:29;101213.03;;;8.99;100.00
72558;BME280;60583;50.094;8.748;2024-02-04T04:55:13;101217.69;;;8.89;100.00
72558;BME280;60583;50.094;8.748;2024-02-04T04:57:57;101218.19;;;8.93;100.00
72558;BME280;60583;50.094;8.748;2024-02-04T05:00:41;101219.84;;;8.94;100.00
72558;BME280;60583;50.094;8.748;2024-02-04T05:03:25;101226.81;;;9.11;100.00
72558;BME280;60583;50.094;8.748;2024-02-04T05:06:09;101195.41;;;8.82;100.00
72558;BME280;60583;50.094;8.748;2024-02-04T05:08:53;101225.34;;;9.09;100.00
72558;BME280;60583;50.094;8.748;2024-02-04T05:11:37;101209.19;;;9.10;100.00
72558;BME280;60583;50.094;8.748;2024-02-04T05:14:21;101219.97;;;9.17;100.00
72558;BME280;60583;50.094;8.748;2024-02-04T05:17:05;101219.66;;;9.12;100.00
72558;BME280;60583;50.094;8.748;2024-02-04T05:19:49;101207.38;;;9.03;100.00
72558;BME280;60583;50.094;8.748;2024-02-04T05:22:34;101217.34;;;9.09;100.00
72558;BME280;60583;50.094;8.748;2024-02-04T05:25:18;101208.69;;;9.15;100.00
72558;BME280;60583;50.094;8.748;2024-02-04T05:28:02;101210.69;;;9.13;100.00
72558;BME280;60583;50.094;8.748;2024-02-04T05:30:45;101188.25;;;9.07;100.00
72558;BME280;60583;50.094;8.748;2024-02-04T05:33:29;101216.97;;;9.20;100.00
72558;BME280;60583;50.094;8.748;2024-02-04T05:36:13;101214.66;;;9.25;100.00
72558;BME280;60583;50.094;8.748;2024-02-04T05:38:57;101201.22;;;9.10;100.00
72558;BME280;60583;50.094;8.748;2024-02-04T05:41:42;101177.13;;;8.95;100.00
72558;BME280;60583;50.094;8.748;2024-02-04T05:44:26;101211.00;;;9.26;100.00
72558;BME280;60583;50.094;8.748;2024-02-04T05:47:10;101216.13;;;9.27;100.00
72558;BME280;60583;50.094;8.748;2024-02-04T05:49:54;101185.09;;;9.04;100.00
72558;BME280;60583;50.094;8.748;2024-02-04T05:52:38;101198.69;;;9.17;100.00
72558;BME280;60583;50.094;8.748;2024-02-04T05:55:22;101213.66;;;9.26;100.00
72558;BME280;60583;50.094;8.748;2024-02-04T05:58:06;101174.78;;;9.01;100.00
72558;BME280;60583;50.094;8.748;2024-02-04T06:00:49;101222.44;;;9.34;100.00
72558;BME280;60583;50.094;8.748;2024-02-04T06:03:33;101204.66;;;9.27;100.00
72558;BME280;60583;50.094;8.748;2024-02-04T06:06:18;101221.31;;;9.29;100.00
72558;BME280;60583;50.094;8.748;2024-02-04T06:09:04;101220.28;;;9.38;100.00
72558;BME280;60583;50.094;8.748;2024-02-04T06:11:48;101212.16;;;9.23;100.00
72558;BME280;60583;50.094;8.748;2024-02-04T06:14:33;101203.16;;;9.32;100.00
72558;BME280;60583;50.094;8.748;2024-02-04T06:17:18;101211.31;;;9.39;100.00
72558;BME280;60583;50.094;8.748;2024-02-04T06:20:02;101205.16;;;9.30;100.00
72558;BME280;60583;50.094;8.748;2024-02-04T06:22:46;101194.72;;;9.21;100.00
72558;BME280;60583;50.094;8.748;2024-02-04T06:25:30;101188.72;;;9.19;100.00
72558;BME280;60583;50.094;8.748;2024-02-04T06:28:14;101175.09;;;9.14;100.00
72558;BME280;60583;50.094;8.748;2024-02-04T06:30:58;101193.66;;;9.38;100.00
72558;BME280;60583;50.094;8.748;2024-02-04T06:33:42;101193.00;;;9.36;100.00
72558;BME280;60583;50.094;8.748;2024-02-04T06:36:26;101193.00;;;9.36;100.00
72558;BME280;60583;50.094;8.748;2024-02-04T06:39:10;101183.69;;;9.32;100.00
72558;BME280;60583;50.094;8.748;2024-02-04T06:41:54;101199.28;;;9.51;100.00
72558;BME280;60583;50.094;8.748;2024-02-04T06:44:38;101193.69;;;9.30;100.00
72558;BME280;60583;50.094;8.748;2024-02-04T06:47:22;101180.34;;;9.38;100.00
72558;BME280;60583;50.094;8.748;2024-02-04T06:50:06;101183.66;;;9.48;100.00
72558;BME280;60583;50.094;8.748;2024-02-04T06:52:51;101176.84;;;9.45;100.00
72558;BME280;60583;50.094;8.748;2024-02-04T06:55:35;101171.50;;;9.45;100.00
72558;BME280;60583;50.094;8.748;2024-02-04T06:58:21;101182.16;;;9.45;100.00
72558;BME280;60583;50.094;8.748;2024-02-04T07:01:05;101193.97;;;9.51;100.00
72558;BME280;60583;50.094;8.748;2024-02-04T07:03:49;101161.38;;;9.41;100.00
72558;BME280;60583;50.094;8.748;2024-02-04T07:06:33;101172.81;;;9.49;100.00
72558;BME280;60583;50.094;8.748;2024-02-04T07:09:18;101169.69;;;9.46;100.00
72558;BME280;60583;50.094;8.748;2024-02-04T07:12:02;101178.44;;;9.62;100.00
72558;BME280;60583;50.094;8.748;2024-02-04T07:14:46;101194.75;;;9.59;100.00
72558;BME280;60583;50.094;8.748;2024-02-04T07:17:30;101178.94;;;9.66;100.00
72558;BME280;60583;50.094;8.748;2024-02-04T07:20:14;101178.75;;;9.59;100.00
72558;BME280;60583;50.094;8.748;2024-02-04T07:22:58;101186.72;;;9.68;100.00
72558;BME280;60583;50.094;8.748;2024-02-04T07:25:42;101195.25;;;9.63;100.00
72558;BME280;60583;50.094;8.748;2024-02-04T07:28:27;101212.34;;;9.77;100.00
72558;BME280;60583;50.094;8.748;2024-02-04T07:31:11;101173.63;;;9.58;100.00
72558;BME280;60583;50.094;8.748;2024-02-04T07:33:54;101175.44;;;9.57;100.00
72558;BME280;60583;50.094;8.748;2024-02-04T07:36:38;101210.78;;;9.82;100.00
72558;BME280;60583;50.094;8.748;2024-02-04T07:39:22;101206.81;;;9.78;100.00
72558;BME280;60583;50.094;8.748;2024-02-04T07:42:06;101196.19;;;9.78;100.00
72558;BME280;60583;50.094;8.748;2024-02-04T07:44:50;101191.69;;;9.79;100.00
72558;BME280;60583;50.094;8.748;2024-02-04T07:47:35;101207.13;;;9.83;100.00
72558;BME280;60583;50.094;8.748;2024-02-04T07:50:19;101201.16;;;9.81;100.00
72558;BME280;60583;50.094;8.748;2024-02-04T07:53:03;101209.31;;;9.80;100.00
72558;BME280;60583;50.094;8.748;2024-02-04T07:55:47;101216.81;;;9.84;100.00
72558;BME280;60583;50.094;8.748;2024-02-04T07:58:33;101195.19;;;9.79;100.00
72558;BME280;60583;50.094;8.748;2024-02-04T08:01:18;101193.16;;;9.81;100.00
72558;BME280;60583;50.094;8.748;2024-02-04T08:04:02;101179.34;;;9.78;100.00
72558;BME280;60583;50.094;8.748;2024-02-04T08:06:49;101166.38;;;9.75;100.00
72558;BME280;60583;50.094;8.748;2024-02-04T08:09:34;101195.31;;;9.86;100.00
72558;BME280;60583;50.094;8.748;2024-02-04T08:12:17;101190.47;;;9.89;100.00
72558;BME280;60583;50.094;8.748;2024-02-04T08:15:02;101193.78;;;9.91;100.00
72558;BME280;60583;50.094;8.748;2024-02-04T08:17:46;101168.56;;;9.79;100.00
72558;BME280;60583;50.094;8.748;2024-02-04T08:20:30;101180.31;;;9.85;100.00
72558;BME280;60583;50.094;8.748;2024-02-04T08:23:15;101182.50;;;9.81;100.00
72558;BME280;60583;50.094;8.748;2024-02-04T08:25:59;101186.31;;;9.87;100.00
72558;BME280;60583;50.094;8.748;2024-02-04T08:28:43;101185.78;;;9.91;100.00
72558;BME280;60583;50.094;8.748;2024-02-04T08:31:30;101181.41;;;9.98;100.00
72558;BME280;60583;50.094;8.748;2024-02-04T08:34:14;101189.75;;;9.95;100.00
72558;BME280;60583;50.094;8.748;2024-02-04T08:36:58;101193.25;;;9.96;100.00
72558;BME280;60583;50.094;8.748;2024-02-04T08:39:41;101180.28;;;9.93;100.00
72558;BME280;60583;50.094;8.748;2024-02-04T08:42:25;101173.78;;;9.95;100.00
72558;BME280;60583;50.094;8.748;2024-02-04T08:45:10;101191.84;;;10.16;100.00
72558;BME280;60583;50.094;8.748;2024-02-04T08:47:54;101187.50;;;10.15;100.00
72558;BME280;60583;50.094;8.748;2024-02-04T08:50:37;101200.03;;;10.14;100.00
72558;BME280;60583;50.094;8.748;2024-02-04T08:53:21;101182.38;;;10.05;100.00
72558;BME280;60583;50.094;8.748;2024-02-04T08:56:07;101198.34;;;10.13;100.00
72558;BME280;60583;50.094;8.748;2024-02-04T08:58:52;101172.75;;;10.04;100.00
72558;BME280;60583;50.094;8.748;2024-02-04T09:01:36;101159.56;;;10.03;100.00
72558;BME280;60583;50.094;8.748;2024-02-04T09:04:20;101169.34;;;10.18;100.00
72558;BME280;60583;50.094;8.748;2024-02-04T09:07:04;101175.50;;;10.19;100.00
72558;BME280;60583;50.094;8.748;2024-02-04T09:09:48;101188.66;;;10.20;100.00
72558;BME280;60583;50.094;8.748;2024-02-04T09:12:32;101173.50;;;10.21;100.00
72558;BME280;60583;50.094;8.748;2024-02-04T09:15:16;101186.94;;;10.27;100.00
72558;BME280;60583;50.094;8.748;2024-02-04T09:18:03;101165.69;;;10.19;100.00
72558;BME280;60583;50.094;8.748;2024-02-04T09:20:47;101194.63;;;10.22;100.00
72558;BME280;60583;50.094;8.748;2024-02-04T09:23:32;101179.81;;;10.20;100.00
72558;BME280;60583;50.094;8.748;2024-02-04T09:26:16;101185.69;;;10.15;100.00
72558;BME280;60583;50.094;8.748;2024-02-04T09:29:00;101170.19;;;10.19;100.00
72558;BME280;60583;50.094;8.748;2024-02-04T09:31:43;101169.69;;;10.15;100.00
72558;BME280;60583;50.094;8.748;2024-02-04T09:34:27;101179.75;;;10.28;100.00
72558;BME280;60583;50.094;8.748;2024-02-04T09:37:11;101191.88;;;10.39;100.00
72558;BME280;60583;50.094;8.748;2024-02-04T09:39:55;101171.66;;;10.44;100.00
72558;BME280;60583;50.094;8.748;2024-02-04T09:42:40;101176.31;;;10.42;100.00
72558;BME280;60583;50.094;8.748;2024-02-04T09:45:24;101173.16;;;10.47;100.00
72558;BME280;60583;50.094;8.748;2024-02-04T09:48:10;101155.50;;;10.60;99.68
72558;BME280;60583;50.094;8.748;2024-02-04T09:50:55;101165.06;;;10.55;99.96
72558;BME280;60583;50.094;8.748;2024-02-04T09:53:43;101167.66;;;10.63;99.49
72558;BME280;60583;50.094;8.748;2024-02-04T09:56:28;101157.34;;;10.60;98.80
72558;BME280;60583;50.094;8.748;2024-02-04T09:59:13;101160.22;;;10.58;98.94
72558;BME280;60583;50.094;8.748;2024-02-04T10:01:57;101160.22;;;10.58;98.26
72558;BME280;60583;50.094;8.748;2024-02-04T10:04:41;101171.09;;;10.71;97.90
72558;BME280;60583;50.094;8.748;2024-02-04T10:07:24;101077.44;;;10.14;96.65
72558;BME280;60583;50.094;8.748;2024-02-04T10:10:09;101162.63;;;10.68;97.36
72558;BME280;60583;50.094;8.748;2024-02-04T10:12:54;101190.50;;;10.80;95.99
72558;BME280;60583;50.094;8.748;2024-02-04T10:15:38;101158.50;;;10.80;95.25
72558;BME280;60583;50.094;8.748;2024-02-04T10:18:22;101123.06;;;10.57;95.47
72558;BME280;60583;50.094;8.748;2024-02-04T10:21:17;101166.09;;;10.91;95.55
72558;BME280;60583;50.094;8.748;2024-02-04T10:24:05;101154.34;;;10.77;95.44
72558;BME280;60583;50.094;8.748;2024-02-04T10:26:50;101169.84;;;10.82;94.70
72558;BME280;60583;50.094;8.748;2024-02-04T10:29:34;101175.75;;;10.92;95.02
72558;BME280;60583;50.094;8.748;2024-02-04T10:32:22;101187.44;;;10.91;94.82
72558;BME280;60583;50.094;8.748;2024-02-04T10:35:07;101172.69;;;10.95;94.51
72558;BME280;60583;50.094;8.748;2024-02-04T10:37:52;101164.69;;;10.95;94.06
72558;BME280;60583;50.094;8.748;2024-02-04T10:40:36;101116.91;;;10.71;94.89
72558;BME280;60583;50.094;8.748;2024-02-04T10:43:21;101128.72;;;10.91;94.61
72558;BME280;60583;50.094;8.748;2024-02-04T10:46:18;101124.09;;;10.85;93.59
72558;BME280;60583;50.094;8.748;2024-02-04T10:49:03;101155.50;;;10.98;94.09
72558;BME280;60583;50.094;8.748;2024-02-04T10:51:54;101162.44;;;11.07;93.82
72558;BME280;60583;50.094;8.748;2024-02-04T10:54:41;101157.16;;;10.99;93.45
72558;BME280;60583;50.094;8.748;2024-02-04T10:57:26;101129.19;;;11.09;93.59
72558;BME280;60583;50.094;8.748;2024-02-04T11:00:11;101135.47;;;11.16;93.52
72558;BME280;60583;50.094;8.748;2024-02-04T11:02:56;101143.03;;;11.27;93.29
72558;BME280;60583;50.094;8.748;2024-02-04T11:05:43;101120.63;;;11.28;94.03
72558;BME280;60583;50.094;8.748;2024-02-04T11:08:27;101129.56;;;11.21;94.66
72558;BME280;60583;50.094;8.748;2024-02-04T11:11:12;101107.38;;;10.91;93.71
72558;BME280;60583;50.094;8.748;2024-02-04T11:13:59;101105.53;;;10.92;94.65
72558;BME280;60583;50.094;8.748;2024-02-04T11:20:21;101122.28;;;11.00;94.03
72558;BME280;60583;50.094;8.748;2024-02-04T11:26:12;101071.03;;;11.05;93.59
72558;BME280;60583;50.094;8.748;2024-02-04T11:28:57;101088.22;;;11.31;92.51
72558;BME280;60583;50.094;8.748;2024-02-04T11:31:41;101100.94;;;11.29;93.03
72558;BME280;60583;50.094;8.748;2024-02-04T11:34:25;101074.13;;;11.23;91.94
72558;BME280;60583;50.094;8.748;2024-02-04T11:37:19;101125.34;;;11.26;92.11
72558;BME280;60583;50.094;8.748;2024-02-04T11:40:07;101101.97;;;11.14;93.15
72558;BME280;60583;50.094;8.748;2024-02-04T11:43:12;101111.78;;;11.13;93.24
72558;BME280;60583;50.094;8.748;2024-02-04T11:45:56;101105.53;;;11.06;94.51
72558;BME280;60583;50.094;8.748;2024-02-04T11:48:41;101103.25;;;11.03;94.41
72558;BME280;60583;50.094;8.748;2024-02-04T11:51:25;101069.38;;;10.89;94.38
72558;BME280;60583;50.094;8.748;2024-02-04T11:54:09;101079.31;;;10.95;94.58
72558;BME280;60583;50.094;8.748;2024-02-04T11:56:53;101131.13;;;11.15;94.27
72558;BME280;60583;50.094;8.748;2024-02-04T11:59:39;101078.09;;;10.98;94.71
72558;BME280;60583;50.094;8.748;2024-02-04T12:02:23;101092.84;;;11.08;94.09
72558;BME280;60583;50.094;8.748;2024-02-04T12:05:07;101095.88;;;11.05;94.25
72558;BME280;60583;50.094;8.748;2024-02-04T12:07:52;101074.25;;;11.00;94.09
72558;BME280;60583;50.094;8.748;2024-02-04T12:10:36;101059.53;;;11.04;94.46
72558;BME280;60583;50.094;8.748;2024-02-04T12:13:21;101087.69;;;11.07;94.95
72558;BME280;60583;50.094;8.748;2024-02-04T12:16:06;101062.19;;;11.04;94.26
72558;BME280;60583;50.094;8.748;2024-02-04T12:18:52;101068.66;;;11.10;94.32
72558;BME280;60583;50.094;8.748;2024-02-04T12:21:37;101083.63;;;11.25;93.69
72558;BME280;60583;50.094;8.748;2024-02-04T12:24:21;101054.66;;;11.22;93.83
72558;BME280;60583;50.094;8.748;2024-02-04T12:27:06;101076.41;;;11.40;93.51
72558;BME280;60583;50.094;8.748;2024-02-04T12:29:51;101066.88;;;11.31;94.45
72558;BME280;60583;50.094;8.748;2024-02-04T12:32:36;101057.28;;;11.37;94.78
72558;BME280;60583;50.094;8.748;2024-02-04T12:35:20;101058.66;;;11.33;94.81
72558;BME280;60583;50.094;8.748;2024-02-04T12:38:04;101063.47;;;11.23;95.51
72558;BME280;60583;50.094;8.748;2024-02-04T12:40:51;101070.41;;;11.17;96.95
72558;BME280;60583;50.094;8.748;2024-02-04T12:43:35;101050.88;;;11.17;96.97
72558;BME280;60583;50.094;8.748;2024-02-04T12:46:20;101065.59;;;11.13;96.47
72558;BME280;60583;50.094;8.748;2024-02-04T12:49:05;101042.56;;;11.26;95.53
72558;BME280;60583;50.094;8.748;2024-02-04T12:51:49;101031.28;;;11.10;94.96
72558;BME280;60583;50.094;8.748;2024-02-04T12:54:43;101076.72;;;11.31;94.81
72558;BME280;60583;50.094;8.748;2024-02-04T12:57:27;101008.00;;;10.89;95.09
72558;BME280;60583;50.094;8.748;2024-02-04T13:00:11;101037.53;;;11.17;94.15
72558;BME280;60583;50.094;8.748;2024-02-04T13:02:56;101022.25;;;11.11;94.26
72558;BME280;60583;50.094;8.748;2024-02-04T13:05:40;101038.63;;;11.22;93.79
72558;BME280;60583;50.094;8.748;2024-02-04T13:08:24;101021.94;;;11.20;94.67
72558;BME280;60583;50.094;8.748;2024-02-04T13:11:07;101031.00;;;11.19;94.09
72558;BME280;60583;50.094;8.748;2024-02-04T13:13:51;101035.03;;;11.15;94.48
72558;BME280;60583;50.094;8.748;2024-02-04T13:16:37;101014.53;;;11.01;95.54
72558;BME280;60583;50.094;8.748;2024-02-04T13:19:21;101042.41;;;11.13;96.26
72558;BME280;60583;50.094;8.748;2024-02-04T13:22:05;101034.13;;;11.08;97.93
72558;BME280;60583;50.094;8.748;2024-02-04T13:24:50;101041.19;;;11.16;97.93
72558;BME280;60583;50.094;8.748;2024-02-04T13:27:34;101030.81;;;11.06;98.53
72558;BME280;60583;50.094;8.748;2024-02-04T13:30:18;101042.75;;;11.10;99.44
72558;BME280;60583;50.094;8.748;2024-02-04T13:33:03;101009.56;;;10.98;99.98
72558;BME280;60583;50.094;8.748;2024-02-04T13:35:47;101036.69;;;11.16;99.97
72558;BME280;60583;50.094;8.748;2024-02-04T13:38:32;101038.22;;;11.25;98.22
72558;BME280;60583;50.094;8.748;2024-02-04T13:41:16;101031.41;;;11.37;97.98
72558;BME280;60583;50.094;8.748;2024-02-04T13:44:00;101036.97;;;11.57;97.02
72558;BME280;60583;50.094;8.748;2024-02-04T13:46:44;101006.75;;;11.57;94.75
72558;BME280;60583;50.094;8.748;2024-02-04T13:49:28;100997.72;;;11.36;95.87
72558;BME280;60583;50.094;8.748;2024-02-04T13:52:12;101019.13;;;11.58;96.22
72558;BME280;60583;50.094;8.748;2024-02-04T13:54:55;101014.31;;;11.32;96.45
72558;BME280;60583;50.094;8.748;2024-02-04T13:57:39;101040.16;;;11.67;97.04
72558;BME280;60583;50.094;8.748;2024-02-04T14:00:24;101017.25;;;11.37;97.56
72558;BME280;60583;50.094;8.748;2024-02-04T14:03:08;101045.44;;;11.61;97.80
72558;BME280;60583;50.094;8.748;2024-02-04T14:05:52;101016.03;;;11.39;96.53
72558;BME280;60583;50.094;8.748;2024-02-04T14:08:36;101021.63;;;11.44;96.46
72558;BME280;60583;50.094;8.748;2024-02-04T14:11:20;101033.41;;;11.35;97.04
72558;BME280;60583;50.094;8.748;2024-02-04T14:14:05;101015.41;;;11.23;97.91
72558;BME280;60583;50.094;8.748;2024-02-04T14:16:49;101027.69;;;11.17;98.16
72558;BME280;60583;50.094;8.748;2024-02-04T14:19:33;101023.44;;;11.08;99.63
72558;BME280;60583;50.094;8.748;2024-02-04T14:22:17;100992.44;;;10.93;98.99
72558;BME280;60583;50.094;8.748;2024-02-04T14:25:01;101010.31;;;10.92;100.00
72558;BME280;60583;50.094;8.748;2024-02-04T14:27:45;101019.50;;;11.04;100.00